Time;durP1;ratioP1;P1;durP2;ratioP2;P2;SDS_P1;SDS_P2;PMS_P1;PMS_P2;Temp;Humidity;BMP_temperature;BMP_pressure;BME280_temperature;BME280_humidity;BME280_pressure;Samples;Min_cycle;Max_cycle;Signal;HPM_P1;HPM_P2
2022/04/25 00:01:02;;;;;;;3.35;2.92;;;12.70;99.90;;;;;;4189699;28;20487;-63
2022/04/25 00:03:03;;;;;;;4.32;3.38;;;12.80;99.90;;;;;;4185695;28;20373;-63
2022/04/25 00:05:04;;;;;;;4.85;3.67;;;12.80;99.90;;;;;;4186474;28;20064;-65
2022/04/25 00:07:05;;;;;;;4.80;3.70;;;12.90;99.90;;;;;;4187539;28;20028;-63
2022/04/25 00:09:05;;;;;;;4.35;3.20;;;13.00;99.90;;;;;;4187706;28;20040;-63
2022/04/25 00:11:06;;;;;;;3.85;3.40;;;13.00;99.90;;;;;;4190989;28;20043;-63
2022/04/25 00:13:06;;;;;;;4.60;3.33;;;13.00;99.90;;;;;;4186674;28;20039;-63
2022/04/25 00:15:07;;;;;;;4.68;3.45;;;13.10;99.90;;;;;;4185922;28;20029;-64
2022/04/25 00:17:08;;;;;;;5.05;3.38;;;13.20;99.90;;;;;;4186732;28;20116;-63
2022/04/25 00:19:09;;;;;;;5.38;3.80;;;13.10;99.90;;;;;;4190641;28;20040;-63
2022/04/25 00:21:09;;;;;;;6.00;3.90;;;13.20;99.90;;;;;;4188884;28;20056;-64
2022/04/25 00:23:10;;;;;;;6.63;3.70;;;13.30;99.90;;;;;;4194140;28;20113;-64
2022/04/25 00:25:11;;;;;;;4.63;3.78;;;13.30;99.90;;;;;;4191141;28;20045;-66
2022/04/25 00:27:12;;;;;;;5.72;3.35;;;13.30;99.90;;;;;;4189573;28;20041;-63
2022/04/25 00:29:13;;;;;;;4.05;3.22;;;13.20;99.90;;;;;;4188618;28;20218;-63
2022/04/25 00:31:14;;;;;;;3.58;3.10;;;13.30;99.90;;;;;;4191623;28;20032;-64
2022/04/25 00:33:15;;;;;;;3.33;3.03;;;13.30;99.90;;;;;;4190507;28;20048;-63
2022/04/25 00:35:15;;;;;;;3.67;2.92;;;13.30;99.90;;;;;;4190847;28;20048;-64
2022/04/25 00:37:16;;;;;;;5.10;3.50;;;13.40;99.90;;;;;;4184657;28;20053;-63
2022/04/25 00:39:16;;;;;;;4.53;3.00;;;13.40;99.90;;;;;;4187378;28;20033;-63
2022/04/25 00:41:17;;;;;;;3.17;2.88;;;13.40;99.90;;;;;;4189995;28;20032;-64
2022/04/25 00:43:17;;;;;;;3.80;3.00;;;13.40;99.90;;;;;;4189234;28;20031;-64
2022/04/25 00:45:19;;;;;;;4.63;3.17;;;13.40;99.90;;;;;;4186537;28;20113;-63
2022/04/25 00:47:20;;;;;;;5.40;3.80;;;13.40;99.90;;;;;;4186114;28;20055;-63
2022/04/25 00:49:23;;;;;;;6.53;3.85;;;13.40;99.90;;;;;;4184253;28;20032;-64
2022/04/25 00:51:24;;;;;;;;;;;13.30;99.90;;;;;;4183398;28;20123;-63
2022/04/25 00:53:25;;;;;;;5.00;3.25;;;13.40;99.90;;;;;;4191241;28;19915;-63
2022/04/25 00:55:26;;;;;;;6.60;3.25;;;13.30;99.90;;;;;;4192557;28;20028;-64
2022/04/25 00:57:27;;;;;;;4.78;3.47;;;13.40;99.90;;;;;;4191193;28;20101;-63
2022/04/25 00:59:29;;;;;;;3.97;3.13;;;13.40;99.90;;;;;;4192584;28;20029;-64
2022/04/25 01:01:31;;;;;;;5.20;3.70;;;13.40;99.90;;;;;;4188655;28;20420;-64
2022/04/25 01:03:31;;;;;;;5.35;3.25;;;13.30;99.90;;;;;;4186044;28;20029;-63
2022/04/25 01:05:32;;;;;;;4.22;3.28;;;13.40;99.90;;;;;;4187258;28;20028;-64
2022/04/25 01:07:37;;;;;;;4.18;3.30;;;13.40;99.90;;;;;;4185205;28;20025;-63
2022/04/25 01:09:38;;;;;;;4.13;3.40;;;13.40;99.90;;;;;;4186203;28;20433;-63
2022/04/25 01:11:39;;;;;;;4.13;3.17;;;13.40;99.90;;;;;;4190958;28;20028;-63
2022/04/25 01:13:39;;;;;;;3.90;3.20;;;13.40;99.90;;;;;;4190577;28;20383;-63
2022/04/25 01:15:40;;;;;;;5.70;2.97;;;13.40;99.90;;;;;;4181945;28;20111;-64
2022/04/25 01:17:41;;;;;;;5.80;2.90;;;13.40;99.90;;;;;;4189225;28;20043;-63
2022/04/25 01:19:41;;;;;;;4.75;3.47;;;13.40;99.90;;;;;;4183826;28;20120;-64
2022/04/25 01:21:49;;;;;;;5.07;3.72;;;13.40;99.90;;;;;;4189913;28;20044;-63
2022/04/25 01:28:28;;;;;;;4.55;3.20;;;13.40;99.90;;;;;;4183471;28;20029;-63
2022/04/25 01:30:31;;;;;;;4.00;3.58;;;13.40;99.90;;;;;;4189353;28;20036;-64
2022/04/25 01:32:32;;;;;;;4.38;3.03;;;13.30;99.90;;;;;;4184761;28;20175;-63
2022/04/25 01:34:33;;;;;;;4.07;2.72;;;13.30;99.90;;;;;;4187437;28;20040;-63
2022/04/25 01:36:33;;;;;;;4.47;3.35;;;13.20;99.90;;;;;;4182375;28;20094;-63
2022/04/25 01:38:34;;;;;;;6.65;3.35;;;13.20;99.90;;;;;;4184668;28;20037;-63
2022/04/25 01:40:34;;;;;;;5.00;3.63;;;13.20;99.90;;;;;;4183415;28;20039;-63
2022/04/25 01:42:35;;;;;;;5.20;3.97;;;13.10;99.90;;;;;;4190860;28;20503;-63
2022/04/25 01:44:36;;;;;;;6.85;4.57;;;13.00;99.90;;;;;;4193174;28;20395;-64
2022/04/25 01:46:39;;;;;;;4.97;3.80;;;13.00;99.90;;;;;;4188770;28;20490;-63
2022/04/25 01:48:39;;;;;;;5.63;3.50;;;12.90;99.90;;;;;;4188654;28;20476;-63
2022/04/25 01:50:41;;;;;;;3.60;2.92;;;12.90;99.90;;;;;;4187282;28;20039;-65
2022/04/25 01:52:42;;;;;;;4.10;3.30;;;12.90;99.90;;;;;;4190111;28;20036;-64
2022/04/25 01:54:43;;;;;;;5.00;3.45;;;12.90;99.90;;;;;;4185931;28;20029;-63
2022/04/25 01:56:43;;;;;;;4.38;3.63;;;12.80;99.90;;;;;;4184196;28;20033;-63
2022/04/25 01:58:44;;;;;;;6.18;3.40;;;12.80;99.90;;;;;;4191245;28;20035;-63
2022/04/25 02:00:45;;;;;;;4.47;3.40;;;12.80;99.90;;;;;;4185985;28;20036;-63
2022/04/25 02:02:46;;;;;;;5.75;3.45;;;12.80;99.90;;;;;;4190427;28;20040;-63
2022/04/25 02:04:46;;;;;;;6.30;3.97;;;12.80;99.90;;;;;;4190175;28;20044;-63
2022/04/25 02:06:47;;;;;;;3.97;3.40;;;12.70;99.90;;;;;;4188484;28;20029;-63
2022/04/25 02:08:48;;;;;;;5.05;3.80;;;12.70;99.90;;;;;;4191111;28;20112;-63
2022/04/25 02:11:19;;;;;;;4.95;3.63;;;12.70;99.90;;;;;;4186040;28;20029;-63
2022/04/25 02:13:09;;;;;;;5.78;4.15;;;12.60;99.90;;;;;;4189973;28;20608;-63
2022/04/25 02:15:12;;;;;;;6.97;4.35;;;12.60;99.90;;;;;;4180297;28;20043;-65
2022/04/25 02:17:14;;;;;;;4.97;3.88;;;12.50;99.90;;;;;;4186861;28;20107;-64
2022/04/25 02:19:14;;;;;;;4.93;4.20;;;12.50;99.90;;;;;;4188723;28;20472;-63
2022/04/25 02:21:15;;;;;;;4.72;3.72;;;12.50;99.90;;;;;;4190076;28;20061;-63
2022/04/25 02:23:16;;;;;;;6.03;4.20;;;12.40;99.90;;;;;;4190720;28;20513;-63
2022/04/25 02:25:17;;;;;;;4.35;3.83;;;12.40;99.90;;;;;;4189228;28;20072;-63
2022/04/25 02:27:18;;;;;;;5.57;3.70;;;12.40;99.90;;;;;;4189822;28;20043;-63
2022/04/25 02:29:22;;;;;;;5.68;4.00;;;12.30;99.90;;;;;;4187446;28;20041;-63
2022/04/25 02:31:26;;;;;;;5.78;4.22;;;12.30;99.90;;;;;;4190203;28;20376;-63
2022/04/25 02:33:27;;;;;;;5.20;3.80;;;12.30;99.90;;;;;;4192385;28;20124;-63
2022/04/25 02:35:28;;;;;;;4.43;3.45;;;12.30;99.90;;;;;;4189496;28;20029;-64
2022/04/25 02:37:28;;;;;;;4.85;3.88;;;12.20;99.90;;;;;;4187054;28;20037;-63
2022/04/25 02:39:29;;;;;;;4.88;3.80;;;12.20;99.90;;;;;;4192028;28;20032;-63
2022/04/25 02:41:30;;;;;;;4.40;3.67;;;12.20;99.90;;;;;;4188701;28;20036;-63
2022/04/25 02:43:41;;;;;;;6.15;3.90;;;12.20;99.90;;;;;;4191410;28;20043;-63
2022/04/25 02:45:41;;;;;;;5.25;4.22;;;12.20;99.90;;;;;;4185248;28;20036;-63
2022/04/25 02:47:42;;;;;;;4.78;3.90;;;12.20;99.90;;;;;;4190903;28;20136;-63
2022/04/25 02:49:43;;;;;;;4.97;4.03;;;12.20;99.90;;;;;;4193668;28;20029;-63
2022/04/25 02:51:44;;;;;;;4.50;3.80;;;12.20;99.90;;;;;;4186907;28;20028;-63
2022/04/25 02:53:44;;;;;;;5.32;3.90;;;12.20;99.90;;;;;;4191516;28;20124;-63
2022/04/25 02:55:45;;;;;;;5.22;4.32;;;12.10;99.90;;;;;;4185509;28;20086;-64
2022/04/25 02:57:46;;;;;;;6.25;4.65;;;12.20;99.90;;;;;;4187131;28;20113;-64
2022/04/25 02:59:46;;;;;;;5.03;3.83;;;12.20;99.90;;;;;;4186965;28;20077;-63
2022/04/25 03:01:47;;;;;;;5.72;4.60;;;12.10;99.90;;;;;;4190900;28;20049;-63
2022/04/25 03:03:48;;;;;;;6.65;5.07;;;12.10;99.90;;;;;;4190103;28;20122;-63
2022/04/25 03:05:50;;;;;;;6.50;4.47;;;12.10;99.90;;;;;;4190905;28;20040;-63
2022/04/25 03:07:51;;;;;;;5.50;4.18;;;12.10;99.90;;;;;;4185586;28;20040;-64
2022/04/25 03:09:51;;;;;;;7.68;4.63;;;12.00;99.90;;;;;;4190733;28;20564;-63
2022/04/25 03:11:52;;;;;;;5.10;3.85;;;12.00;99.90;;;;;;4182965;28;20362;-64
2022/04/25 03:13:55;;;;;;;5.03;4.22;;;12.00;99.90;;;;;;4187526;28;20499;-63
2022/04/25 03:15:56;;;;;;;5.63;4.30;;;12.00;99.90;;;;;;4187125;28;20040;-62
2022/04/25 03:17:57;;;;;;;5.93;4.30;;;12.10;99.90;;;;;;4185570;28;20492;-63
2022/04/25 03:19:57;;;;;;;5.00;3.90;;;12.00;99.90;;;;;;4187804;28;20460;-62
2022/04/25 03:21:58;;;;;;;6.47;4.18;;;12.00;99.90;;;;;;4186282;28;20109;-63
2022/04/25 03:23:59;;;;;;;5.43;4.45;;;12.00;99.90;;;;;;4178632;28;20065;-62
2022/04/25 03:25:59;;;;;;;6.15;4.28;;;12.00;99.90;;;;;;4192510;28;20029;-64
2022/04/25 03:28:00;;;;;;;8.25;4.35;;;12.00;99.90;;;;;;4190104;28;20372;-63
2022/04/25 03:30:01;;;;;;;6.00;4.85;;;12.00;99.90;;;;;;4189347;28;20121;-63
2022/04/25 03:32:02;;;;;;;7.53;4.80;;;12.00;99.90;;;;;;4189399;28;20050;-64
2022/04/25 03:34:03;;;;;;;5.50;4.35;;;12.00;99.90;;;;;;4188790;28;20055;-63
2022/04/25 03:36:04;;;;;;;6.63;4.63;;;12.00;99.90;;;;;;4188379;28;20064;-63
2022/04/25 03:38:09;;;;;;;5.00;4.30;;;12.00;99.90;;;;;;4187213;28;20060;-63
2022/04/25 03:40:09;;;;;;;5.18;4.30;;;12.00;99.90;;;;;;4184188;28;20113;-64
2022/04/25 03:42:10;;;;;;;8.50;4.30;;;12.00;99.90;;;;;;4189715;28;20484;-63
2022/04/25 03:44:10;;;;;;;6.78;4.72;;;11.90;99.90;;;;;;4188043;28;20037;-63
2022/04/25 03:46:12;;;;;;;5.63;4.47;;;12.00;99.90;;;;;;4191419;28;20032;-63
2022/04/25 03:48:13;;;;;;;7.70;5.32;;;11.90;99.90;;;;;;4187400;28;20147;-63
2022/04/25 03:50:15;;;;;;;6.57;4.57;;;11.90;99.90;;;;;;4185524;28;20029;-64
2022/04/25 03:52:16;;;;;;;6.00;4.63;;;11.80;99.90;;;;;;4189279;28;20041;-63
2022/04/25 03:57:09;;;;;;;6.25;4.50;;;11.80;99.90;;;;;;4185263;28;20130;-63
2022/04/25 03:59:08;;;;;;;6.85;4.75;;;11.70;99.90;;;;;;4180325;28;20029;-63
2022/04/25 04:01:08;;;;;;;8.10;4.67;;;11.70;99.90;;;;;;4184571;28;20484;-63
2022/04/25 04:03:10;;;;;;;5.90;4.82;;;11.70;99.90;;;;;;4188064;28;20032;-62
2022/04/25 04:05:12;;;;;;;7.20;4.75;;;11.60;99.90;;;;;;4189747;28;20044;-63
2022/04/25 04:07:13;;;;;;;7.38;5.38;;;11.70;99.90;;;;;;4182829;28;20041;-63
2022/04/25 04:11:46;;;;;;;7.47;5.00;;;11.60;99.90;;;;;;4184390;28;20116;-63
2022/04/25 04:13:47;;;;;;;7.05;5.25;;;11.60;99.90;;;;;;4190049;28;20514;-63
2022/04/25 04:15:48;;;;;;;6.40;5.00;;;11.60;99.90;;;;;;4184856;28;20127;-63
2022/04/25 04:17:48;;;;;;;6.82;4.43;;;11.50;99.90;;;;;;4186799;28;20480;-63
2022/04/25 04:19:49;;;;;;;7.50;5.03;;;11.50;99.90;;;;;;4181569;28;20035;-64
2022/04/25 04:21:50;;;;;;;6.07;4.88;;;11.50;99.90;;;;;;4188581;28;20040;-64
2022/04/25 04:23:50;;;;;;;9.50;5.55;;;11.40;99.90;;;;;;4188743;28;20032;-63
2022/04/25 04:25:51;;;;;;;7.07;4.93;;;11.40;99.90;;;;;;4189077;28;20042;-63
2022/04/25 04:27:51;;;;;;;7.15;4.70;;;11.40;99.90;;;;;;4187738;28;20078;-63
2022/04/25 04:29:52;;;;;;;8.15;5.10;;;11.40;99.90;;;;;;4192077;28;20025;-63
2022/04/25 04:31:52;;;;;;;6.63;5.10;;;11.40;99.90;;;;;;4187168;28;20051;-63
2022/04/25 04:33:53;;;;;;;5.47;4.47;;;11.40;99.90;;;;;;4189103;28;20033;-63
2022/04/25 04:38:13;;;;;;;5.90;4.47;;;11.30;99.90;;;;;;4187867;28;20064;-64
2022/04/25 04:40:29;;;;;;;7.57;5.45;;;11.30;99.90;;;;;;4186953;28;21178;-63
2022/04/25 04:42:29;;;;;;;8.57;5.80;;;11.30;99.90;;;;;;4187669;28;20047;-64
2022/04/25 04:44:30;;;;;;;6.38;4.80;;;11.30;99.90;;;;;;4190474;28;20033;-63
2022/04/25 04:46:30;;;;;;;6.93;4.78;;;11.30;99.90;;;;;;4189748;28;20040;-67
2022/04/25 04:48:31;;;;;;;7.70;4.50;;;11.20;99.90;;;;;;4187673;28;20549;-63
2022/04/25 04:50:32;;;;;;;6.85;5.07;;;11.20;99.90;;;;;;4186978;28;25345;-63
2022/04/25 04:52:33;;;;;;;8.02;5.15;;;11.20;99.90;;;;;;4187861;28;20310;-63
2022/04/25 04:54:34;;;;;;;8.55;5.30;;;11.20;99.90;;;;;;4187795;28;20056;-62
2022/04/25 04:56:35;;;;;;;8.45;5.13;;;11.20;99.90;;;;;;4184975;28;20559;-63
2022/04/25 04:58:36;;;;;;;6.90;5.43;;;11.20;99.90;;;;;;4187002;28;20032;-63
2022/04/25 05:00:36;;;;;;;7.32;5.35;;;11.20;99.90;;;;;;4186040;28;20365;-63
2022/04/25 05:02:38;;;;;;;8.48;5.13;;;11.20;99.90;;;;;;4189587;28;20067;-63
2022/04/25 05:04:38;;;;;;;7.30;5.53;;;11.10;99.90;;;;;;4190458;28;20383;-63
2022/04/25 05:06:39;;;;;;;8.63;5.40;;;11.10;99.90;;;;;;4187932;28;20039;-63
2022/04/25 05:08:40;;;;;;;7.60;5.60;;;11.10;99.90;;;;;;4185409;28;20033;-63
2022/04/25 05:10:40;;;;;;;7.25;5.80;;;11.10;99.90;;;;;;4188686;28;20039;-63
2022/04/25 05:12:59;;;;;;;8.88;5.72;;;11.10;99.90;;;;;;4189151;28;20036;-63
2022/04/25 05:15:03;;;;;;;9.75;5.80;;;11.10;99.90;;;;;;4188474;28;20031;-63
2022/04/25 05:17:04;;;;;;;8.52;5.97;;;11.10;99.90;;;;;;4188847;28;20524;-63
2022/04/25 05:19:04;;;;;;;7.97;6.28;;;11.10;99.90;;;;;;4188533;28;20040;-63
2022/04/25 05:21:05;;;;;;;8.07;5.95;;;11.10;99.90;;;;;;4188209;28;20052;-63
2022/04/25 05:23:10;;;;;;;8.55;5.97;;;11.20;99.90;;;;;;4188516;28;20424;-63
2022/04/25 05:25:14;;;;;;;6.93;5.80;;;11.20;99.90;;;;;;4187303;28;20033;-64
2022/04/25 05:27:14;;;;;;;8.13;6.13;;;11.20;99.90;;;;;;4188367;28;20034;-64
2022/04/25 05:29:15;;;;;;;10.27;5.80;;;11.20;99.90;;;;;;4189088;28;20431;-64
2022/04/25 05:31:16;;;;;;;10.07;6.10;;;11.20;99.90;;;;;;4191311;28;20047;-65
2022/04/25 05:33:17;;;;;;;7.55;6.07;;;11.20;99.90;;;;;;4190973;28;20090;-64
2022/04/25 05:35:23;;;;;;;6.63;5.28;;;11.20;99.90;;;;;;4189383;28;20115;-64
2022/04/25 05:37:24;;;;;;;8.80;5.60;;;11.30;99.90;;;;;;4190172;28;20036;-64
2022/04/25 05:39:25;;;;;;;8.38;6.00;;;11.30;99.90;;;;;;4184751;28;20423;-64
2022/04/25 05:41:25;;;;;;;10.25;6.43;;;11.30;99.90;;;;;;4191610;28;20025;-64
2022/04/25 05:43:26;;;;;;;10.75;6.25;;;11.30;99.90;;;;;;4190593;28;20041;-64
2022/04/25 05:45:27;;;;;;;9.02;5.90;;;11.30;99.90;;;;;;4189277;28;20395;-64
2022/04/25 05:47:27;;;;;;;8.10;5.40;;;11.40;99.90;;;;;;4189383;28;20051;-64
2022/04/25 05:52:00;;;;;;;8.48;6.20;;;11.40;99.90;;;;;;4188030;28;20041;-64
2022/04/25 05:54:01;;;;;;;11.75;7.00;;;11.40;99.90;;;;;;4190062;28;20597;-64
2022/04/25 05:56:02;;;;;;;7.97;6.47;;;11.50;99.90;;;;;;4187952;28;20041;-64
2022/04/25 05:58:04;;;;;;;11.90;6.75;;;11.50;99.90;;;;;;4192590;28;20135;-64
2022/04/25 06:00:07;;;;;;;11.77;7.18;;;11.50;99.90;;;;;;4188799;28;20032;-64
2022/04/25 06:02:07;;;;;;;10.40;6.70;;;11.50;99.90;;;;;;4189040;28;20480;-64
2022/04/25 06:04:08;;;;;;;7.90;6.22;;;11.60;99.90;;;;;;4194434;28;20045;-64
2022/04/25 06:06:09;;;;;;;9.90;6.55;;;11.60;99.90;;;;;;4186015;28;20037;-64
2022/04/25 06:08:11;;;;;;;10.88;6.53;;;11.60;99.90;;;;;;4189231;28;20043;-64
2022/04/25 06:10:13;;;;;;;11.60;6.40;;;11.60;99.90;;;;;;4190205;28;20036;-65
2022/04/25 06:12:14;;;;;;;10.65;6.57;;;11.60;99.90;;;;;;4188266;28;20086;-63
2022/04/25 06:14:14;;;;;;;8.90;6.30;;;11.60;99.90;;;;;;4191057;28;20033;-64
2022/04/25 06:16:15;;;;;;;8.48;6.60;;;11.60;99.90;;;;;;4188885;28;20120;-64
2022/04/25 06:18:16;;;;;;;7.97;5.90;;;11.60;99.90;;;;;;4189967;28;20040;-64
2022/04/25 06:20:17;;;;;;;8.52;6.35;;;11.60;99.90;;;;;;4188352;28;20049;-64
2022/04/25 06:22:21;;;;;;;8.02;6.05;;;11.70;99.90;;;;;;4190920;28;20032;-64
2022/04/25 06:24:22;;;;;;;10.30;6.82;;;11.70;99.90;;;;;;4190809;28;20052;-64
2022/04/25 06:26:23;;;;;;;9.98;6.78;;;11.70;99.90;;;;;;4191179;28;20043;-64
2022/04/25 06:28:26;;;;;;;8.90;6.30;;;11.70;99.90;;;;;;4187578;28;20381;-64
2022/04/25 06:30:29;;;;;;;9.65;6.57;;;11.70;99.90;;;;;;4188999;28;20059;-64
2022/04/25 06:32:30;;;;;;;8.90;6.25;;;11.80;99.90;;;;;;4189758;28;20400;-64
2022/04/25 06:34:32;;;;;;;10.63;7.00;;;11.80;99.90;;;;;;4191047;28;20033;-64
2022/04/25 06:36:32;;;;;;;10.57;6.00;;;11.80;99.90;;;;;;4188906;28;20028;-64
2022/04/25 06:38:33;;;;;;;8.70;5.95;;;11.80;99.90;;;;;;4190399;28;20275;-64
2022/04/25 06:40:34;;;;;;;9.00;6.68;;;11.80;99.90;;;;;;4190566;28;20041;-66
2022/04/25 06:42:34;;;;;;;7.60;6.13;;;11.80;99.90;;;;;;4191397;28;20037;-65
2022/04/25 06:44:35;;;;;;;8.30;6.10;;;11.90;99.90;;;;;;4190051;28;20024;-64
2022/04/25 06:46:36;;;;;;;8.05;6.50;;;11.90;99.90;;;;;;4187335;28;20041;-64
2022/04/25 06:48:36;;;;;;;7.88;5.70;;;11.90;99.90;;;;;;4187721;28;20029;-64
2022/04/25 06:50:37;;;;;;;9.30;6.40;;;11.90;99.90;;;;;;4189152;28;20040;-63
2022/04/25 06:52:38;;;;;;;9.35;6.32;;;11.90;99.90;;;;;;4190734;28;20021;-64
2022/04/25 06:54:39;;;;;;;8.25;6.30;;;11.90;99.90;;;;;;4191769;28;20036;-64
2022/04/25 06:56:40;;;;;;;8.75;6.68;;;12.00;99.90;;;;;;4185212;28;20029;-64
2022/04/25 06:58:41;;;;;;;9.63;7.03;;;12.00;99.90;;;;;;4189809;28;20380;-64
2022/04/25 07:00:42;;;;;;;8.95;6.10;;;12.00;99.90;;;;;;4189800;28;20068;-63
2022/04/25 07:02:42;;;;;;;8.77;6.32;;;12.00;99.90;;;;;;4191706;28;20057;-63
2022/04/25 07:04:43;;;;;;;7.82;6.43;;;12.00;99.90;;;;;;4190780;28;20028;-63
2022/04/25 07:06:45;;;;;;;8.73;6.03;;;12.00;99.90;;;;;;4189983;28;20033;-63
2022/04/25 07:08:45;;;;;;;6.43;5.43;;;12.00;99.90;;;;;;4191790;28;20029;-64
2022/04/25 07:10:46;;;;;;;7.82;5.93;;;12.10;99.90;;;;;;4189999;28;20634;-64
2022/04/25 07:12:47;;;;;;;9.10;6.30;;;12.10;99.90;;;;;;4190927;28;20128;-64
2022/04/25 07:14:49;;;;;;;10.55;6.22;;;12.00;99.90;;;;;;4191821;28;20043;-64
2022/04/25 07:16:54;;;;;;;6.07;5.15;;;12.10;99.90;;;;;;4190837;28;20037;-64
2022/04/25 07:18:55;;;;;;;7.50;6.30;;;12.10;99.90;;;;;;4189132;28;20419;-64
2022/04/25 07:20:55;;;;;;;8.25;6.15;;;12.00;99.90;;;;;;4190055;28;20084;-64
2022/04/25 07:29:54;;;;;;;7.80;5.82;;;12.00;99.90;;;;;;4191110;28;20036;-64
2022/04/25 07:31:54;;;;;;;8.55;6.25;;;11.90;99.90;;;;;;4189087;28;20186;-64
2022/04/25 07:33:57;;;;;;;9.93;6.65;;;11.90;99.90;;;;;;4191468;28;20385;-64
2022/04/25 07:35:57;;;;;;;9.48;6.50;;;11.80;99.90;;;;;;4190011;28;20506;-64
2022/04/25 07:37:58;;;;;;;8.35;6.32;;;11.90;99.90;;;;;;4185024;28;20072;-64
2022/04/25 07:39:59;;;;;;;7.70;6.18;;;11.80;99.90;;;;;;4186483;28;20036;-64
2022/04/25 07:42:00;;;;;;;8.38;6.53;;;11.80;99.90;;;;;;4189362;28;20060;-64
2022/04/25 07:44:01;;;;;;;8.60;6.50;;;11.80;99.90;;;;;;4189019;28;20037;-64
2022/04/25 07:46:02;;;;;;;8.88;6.68;;;11.80;99.90;;;;;;4188422;28;20029;-64
2022/04/25 07:48:03;;;;;;;8.95;6.80;;;11.80;99.90;;;;;;4188901;28;20483;-63
2022/04/25 07:50:04;;;;;;;12.00;8.05;;;11.80;99.90;;;;;;4185541;28;20504;-64
2022/04/25 07:52:05;;;;;;;9.70;7.10;;;11.80;99.90;;;;;;4189491;28;20068;-64
2022/04/25 07:54:05;;;;;;;11.48;7.70;;;11.80;99.90;;;;;;4190374;28;20107;-64
2022/04/25 07:56:06;;;;;;;10.02;7.82;;;11.80;99.90;;;;;;4190521;28;20041;-63
2022/04/25 07:58:09;;;;;;;12.52;7.95;;;11.80;99.90;;;;;;4191180;28;20036;-64
2022/04/25 08:00:10;;;;;;;10.60;8.50;;;11.70;99.90;;;;;;4189855;28;20048;-64
2022/04/25 08:02:11;;;;;;;13.00;8.32;;;11.70;99.90;;;;;;4185775;28;20058;-63
2022/04/25 08:04:12;;;;;;;11.27;9.05;;;11.70;99.90;;;;;;4187575;28;20063;-63
2022/04/25 08:06:13;;;;;;;12.65;8.95;;;11.70;99.90;;;;;;4190066;28;20112;-63
2022/04/25 08:08:14;;;;;;;12.65;8.32;;;11.60;99.90;;;;;;4190566;28;20048;-64
2022/04/25 08:10:15;;;;;;;13.25;8.35;;;11.60;99.90;;;;;;4189999;28;20037;-64
2022/04/25 08:19:13;;;;;;;10.57;7.93;;;11.70;99.90;;;;;;4190177;28;20377;-64
2022/04/25 08:21:14;;;;;;;13.55;9.55;;;11.70;99.90;;;;;;4188639;28;20133;-64
2022/04/25 08:23:15;;;;;;;11.57;8.45;;;11.70;99.90;;;;;;4185546;28;20052;-64
2022/04/25 08:25:16;;;;;;;13.77;8.98;;;11.70;99.90;;;;;;4186792;28;20059;-66
2022/04/25 08:27:17;;;;;;;12.68;9.23;;;11.50;99.90;;;;;;4188508;28;20025;-65
2022/04/25 08:29:17;;;;;;;12.98;8.75;;;11.60;99.90;;;;;;4190460;28;20098;-64
2022/04/25 08:31:18;;;;;;;13.85;9.25;;;11.60;99.90;;;;;;4188892;28;20061;-64
2022/04/25 08:33:20;;;;;;;14.15;9.20;;;11.50;99.90;;;;;;4187936;28;20045;-64
2022/04/25 08:35:21;;;;;;;12.07;8.80;;;11.50;99.90;;;;;;4189894;28;20051;-65
2022/04/25 08:37:21;;;;;;;12.27;9.23;;;11.50;99.90;;;;;;4190388;28;20060;-64
2022/04/25 08:39:22;;;;;;;10.85;8.25;;;11.50;99.90;;;;;;4189164;28;20032;-64
2022/04/25 08:41:45;;;;;;;10.48;8.23;;;11.50;99.90;;;;;;4187731;28;20041;-64
2022/04/25 08:43:47;;;;;;;13.70;9.05;;;11.50;99.90;;;;;;4181352;28;20480;-66
2022/04/25 08:45:48;;;;;;;13.55;9.25;;;11.50;99.90;;;;;;4188320;28;20043;-64
2022/04/25 08:47:55;;;;;;;12.77;8.55;;;11.50;99.90;;;;;;4188519;28;20042;-64
2022/04/25 08:49:58;;;;;;;12.48;8.75;;;11.50;99.90;;;;;;4190215;28;20048;-64
2022/04/25 08:52:01;;;;;;;13.40;9.60;;;11.50;99.90;;;;;;4187185;28;20117;-64
2022/04/25 08:54:03;;;;;;;12.57;9.40;;;11.60;99.90;;;;;;4190794;28;20082;-64
2022/04/25 08:56:06;;;;;;;12.95;8.70;;;11.50;99.90;;;;;;4189561;28;20496;-64
2022/04/25 08:58:08;;;;;;;11.93;9.05;;;11.50;99.90;;;;;;4187426;28;20036;-64
2022/04/25 09:00:10;;;;;;;12.07;8.77;;;11.60;99.90;;;;;;4188616;28;20091;-65
2022/04/25 09:02:12;;;;;;;12.73;9.60;;;11.60;99.90;;;;;;4189471;28;20036;-63
2022/04/25 09:04:13;;;;;;;13.82;9.02;;;11.60;99.90;;;;;;4188772;28;20044;-64
2022/04/25 09:06:13;;;;;;;11.98;8.52;;;11.60;99.90;;;;;;4185782;28;20032;-64
2022/04/25 09:08:14;;;;;;;13.50;9.05;;;11.60;99.90;;;;;;4187005;28;20039;-64
2022/04/25 09:10:17;;;;;;;11.20;8.98;;;11.60;99.90;;;;;;4189248;28;20415;-64
2022/04/25 09:12:18;;;;;;;11.93;8.77;;;11.70;99.90;;;;;;4189650;28;20113;-65
2022/04/25 09:14:19;;;;;;;13.35;9.57;;;11.70;99.90;;;;;;4190135;28;20048;-64
2022/04/25 09:16:19;;;;;;;11.95;9.43;;;11.70;99.90;;;;;;4188478;28;20060;-64
2022/04/25 09:18:20;;;;;;;13.45;9.88;;;11.70;99.90;;;;;;4187066;28;20048;-64
2022/04/25 09:20:21;;;;;;;12.98;10.02;;;11.70;99.90;;;;;;4187408;28;20133;-64
2022/04/25 09:22:31;;;;;;;12.77;9.65;;;11.80;99.90;;;;;;4187592;28;20443;-64
2022/04/25 09:24:33;;;;;;;13.13;9.15;;;11.80;99.90;;;;;;4187852;28;20162;-64
2022/04/25 09:26:34;;;;;;;10.50;8.23;;;11.80;99.90;;;;;;4187367;28;20033;-64
2022/04/25 09:28:51;;;;;;;10.82;8.35;;;11.90;99.90;;;;;;4203091;28;20029;-64
2022/04/25 09:30:56;;;;;;;11.50;9.10;;;11.90;99.90;;;;;;4189046;28;20037;-64
2022/04/25 09:32:57;;;;;;;12.40;8.95;;;11.90;99.90;;;;;;4187992;28;20110;-64
2022/04/25 09:35:02;;;;;;;12.40;8.95;;;11.90;99.90;;;;;;4188715;28;20032;-64
2022/04/25 09:37:06;;;;;;;12.07;8.90;;;11.90;99.90;;;;;;4189620;28;20496;-63
2022/04/25 09:39:26;;;;;;;12.90;8.57;;;11.90;99.90;;;;;;4189282;28;20055;-64
2022/04/25 09:41:33;;;;;;;11.13;8.85;;;12.00;99.90;;;;;;4191180;28;20048;-64
2022/04/25 09:43:37;;;;;;;11.23;8.32;;;12.00;99.90;;;;;;4193173;28;20036;-64
2022/04/25 09:45:42;;;;;;;10.98;8.65;;;12.00;99.90;;;;;;4191447;28;20044;-64
2022/04/25 09:47:44;;;;;;;13.02;8.93;;;12.00;99.90;;;;;;4190035;28;20383;-63
2022/04/25 09:49:57;;;;;;;11.65;8.55;;;12.10;99.90;;;;;;4192293;28;20483;-64
2022/04/25 09:52:03;;;;;;;11.73;8.13;;;12.10;99.90;;;;;;4190147;28;20050;-63
2022/04/25 09:54:04;;;;;;;11.98;7.93;;;12.10;99.90;;;;;;4190372;28;20063;-64
2022/04/25 09:56:12;;;;;;;14.80;9.27;;;12.10;99.90;;;;;;4192103;28;20040;-63
2022/04/25 09:58:17;;;;;;;11.13;7.32;;;12.10;99.90;;;;;;4190391;28;20051;-64
2022/04/25 10:00:37;;;;;;;10.55;8.10;;;12.10;99.90;;;;;;4190723;28;20036;-65
2022/04/25 10:02:39;;;;;;;13.38;9.00;;;12.20;99.90;;;;;;4192868;28;20040;-64
2022/04/25 10:04:42;;;;;;;11.68;8.85;;;12.10;99.90;;;;;;4184527;28;20044;-64
2022/04/25 10:06:44;;;;;;;14.25;10.60;;;12.10;99.90;;;;;;4190868;28;20035;-64
2022/04/25 10:08:48;;;;;;;12.38;9.68;;;11.90;99.90;;;;;;4190571;28;20039;-64
2022/04/25 10:10:53;;;;;;;10.90;8.30;;;11.90;99.90;;;;;;4191394;28;20032;-64
2022/04/25 10:12:55;;;;;;;12.98;9.35;;;12.00;99.90;;;;;;4186592;28;20051;-64
2022/04/25 10:14:58;;;;;;;14.52;10.93;;;12.00;99.90;;;;;;4193174;28;20109;-64
2022/04/25 10:16:59;;;;;;;;;;;12.10;99.90;;;;;;4171280;28;20037;-64
2022/04/25 10:18:59;;;;;;;11.35;9.35;;;12.10;99.90;;;;;;4188580;28;19916;-64
2022/04/25 10:21:01;;;;;;;16.40;10.90;;;12.20;99.90;;;;;;4188498;28;20045;-64
2022/04/25 10:23:06;;;;;;;13.77;10.95;;;12.30;99.90;;;;;;4188989;28;20044;-64
2022/04/25 10:25:07;;;;;;;;;;;12.30;99.90;;;;;;4193267;28;20044;-65
2022/04/25 10:27:12;;;;;;;14.77;11.23;;;12.30;99.90;;;;;;4190947;28;19959;-64
2022/04/25 10:29:24;;;;;;;19.35;13.50;;;12.40;99.90;;;;;;4190502;28;20029;-64
2022/04/25 10:31:38;;;;;;;15.25;11.93;;;12.40;99.90;;;;;;4189403;28;20037;-63
2022/04/25 10:33:53;;;;;;;17.70;13.75;;;12.40;99.90;;;;;;4187986;28;20206;-65
2022/04/25 10:35:54;;;;;;;17.38;13.77;;;12.30;99.90;;;;;;4191014;28;20060;-64
2022/04/25 10:37:54;;;;;;;20.10;14.95;;;12.40;99.90;;;;;;4190546;28;20040;-64
2022/04/25 10:39:56;;;;;;;20.70;15.45;;;12.40;99.90;;;;;;4188507;28;20078;-64
2022/04/25 10:44:17;;;;;;;18.75;13.85;;;12.40;99.90;;;;;;4188221;28;20028;-66
2022/04/25 10:46:18;;;;;;;19.83;14.75;;;12.50;99.90;;;;;;4192146;28;20043;-65
2022/04/25 10:48:19;;;;;;;21.02;15.55;;;12.50;99.90;;;;;;4188457;28;20495;-63
2022/04/25 10:50:19;;;;;;;23.17;17.02;;;12.60;99.90;;;;;;4191607;28;20357;-64
2022/04/25 10:52:33;;;;;;;23.55;18.00;;;12.50;99.90;;;;;;4190933;28;20040;-65
2022/04/25 10:54:48;;;;;;;26.17;19.45;;;12.70;99.90;;;;;;4192157;28;20032;-64
2022/04/25 10:57:07;;;;;;;24.02;17.98;;;12.80;99.90;;;;;;4190329;28;20058;-64
2022/04/25 10:59:28;;;;;;;28.70;20.23;;;12.80;99.90;;;;;;4191183;28;20514;-64
2022/04/25 11:01:32;;;;;;;27.92;20.80;;;12.80;99.90;;;;;;4188393;28;20033;-64
2022/04/25 11:03:32;;;;;;;27.92;19.90;;;12.80;99.90;;;;;;4190600;28;20498;-64